sensor_id;sensor_type;location;lat;lon;timestamp;pressure;altitude;pressure_sealevel;temperature;humidity
43312;BME280;30041;48.300;16.352;2023-03-21T00:01:51;99915.38;;;20.89;44.56
43312;BME280;30041;48.300;16.352;2023-03-21T00:04:16;99915.38;;;20.89;44.40
43312;BME280;30041;48.300;16.352;2023-03-21T00:06:42;99917.25;;;20.88;44.49
43312;BME280;30041;48.300;16.352;2023-03-21T00:09:08;99915.59;;;20.87;44.36
43312;BME280;30041;48.300;16.352;2023-03-21T00:11:33;99920.16;;;20.87;44.49
43312;BME280;30041;48.300;16.352;2023-03-21T00:13:59;99912.53;;;20.84;44.61
43312;BME280;30041;48.300;16.352;2023-03-21T00:16:24;99916.06;;;20.84;44.67
43312;BME280;30041;48.300;16.352;2023-03-21T00:18:52;99907.16;;;20.84;44.49
43312;BME280;30041;48.300;16.352;2023-03-21T00:21:19;99910.66;;;20.84;44.62
43312;BME280;30041;48.300;16.352;2023-03-21T00:23:46;99913.56;;;20.83;44.27
43312;BME280;30041;48.300;16.352;2023-03-21T00:26:13;99900.94;;;20.83;44.33
43312;BME280;30041;48.300;16.352;2023-03-21T00:28:40;99901.97;;;20.82;44.55
43312;BME280;30041;48.300;16.352;2023-03-21T00:31:07;99908.19;;;20.83;44.31
43312;BME280;30041;48.300;16.352;2023-03-21T00:33:34;99905.50;;;20.83;44.48
43312;BME280;30041;48.300;16.352;2023-03-21T00:36:00;99910.06;;;20.82;44.48
43312;BME280;30041;48.300;16.352;2023-03-21T00:38:26;99908.66;;;20.80;44.56
43312;BME280;30041;48.300;16.352;2023-03-21T00:40:52;99901.63;;;20.79;44.57
43312;BME280;30041;48.300;16.352;2023-03-21T00:43:18;99902.44;;;20.79;44.41
43312;BME280;30041;48.300;16.352;2023-03-21T00:45:45;99907.84;;;20.79;44.36
43312;BME280;30041;48.300;16.352;2023-03-21T00:48:11;99905.97;;;20.80;44.40
43312;BME280;30041;48.300;16.352;2023-03-21T00:50:37;99908.88;;;20.78;44.61
43312;BME280;30041;48.300;16.352;2023-03-21T00:53:04;99909.72;;;20.79;44.57
43312;BME280;30041;48.300;16.352;2023-03-21T00:55:30;99902.19;;;20.81;44.41
43312;BME280;30041;48.300;16.352;2023-03-21T00:57:56;99908.06;;;20.78;44.48
43312;BME280;30041;48.300;16.352;2023-03-21T01:00:21;99909.94;;;20.77;44.50
43312;BME280;30041;48.300;16.352;2023-03-21T01:02:47;99904.53;;;20.77;44.43
43312;BME280;30041;48.300;16.352;2023-03-21T01:05:13;99907.25;;;20.77;44.51
43312;BME280;30041;48.300;16.352;2023-03-21T01:07:39;99904.75;;;20.76;44.55
43312;BME280;30041;48.300;16.352;2023-03-21T01:10:05;99905.81;;;20.75;44.21
43312;BME280;30041;48.300;16.352;2023-03-21T01:12:30;99901.47;;;20.73;44.50
43312;BME280;30041;48.300;16.352;2023-03-21T01:14:56;99899.59;;;20.74;44.44
43312;BME280;30041;48.300;16.352;2023-03-21T01:17:21;99897.97;;;20.73;44.53
43312;BME280;30041;48.300;16.352;2023-03-21T01:19:47;99901.72;;;20.72;44.50
43312;BME280;30041;48.300;16.352;2023-03-21T01:22:12;99898.19;;;20.71;44.47
43312;BME280;30041;48.300;16.352;2023-03-21T01:24:38;99890.94;;;20.72;44.55
43312;BME280;30041;48.300;16.352;2023-03-21T01:27:04;99893.03;;;20.70;44.48
43312;BME280;30041;48.300;16.352;2023-03-21T01:29:29;99894.88;;;20.69;44.53
43312;BME280;30041;48.300;16.352;2023-03-21T01:31:55;99893.03;;;20.70;44.66
43312;BME280;30041;48.300;16.352;2023-03-21T01:34:21;99888.69;;;20.69;44.52
43312;BME280;30041;48.300;16.352;2023-03-21T01:36:47;99897.34;;;20.71;44.36
43312;BME280;30041;48.300;16.352;2023-03-21T01:39:12;99895.94;;;20.68;44.54
43312;BME280;30041;48.300;16.352;2023-03-21T01:41:41;99893.03;;;20.70;44.53
43312;BME280;30041;48.300;16.352;2023-03-21T01:44:12;99900.50;;;20.68;44.45
43312;BME280;30041;48.300;16.352;2023-03-21T01:46:48;99893.72;;;20.65;44.46
43312;BME280;30041;48.300;16.352;2023-03-21T01:49:15;99889.75;;;20.68;44.34
43312;BME280;30041;48.300;16.352;2023-03-21T01:51:49;99887.88;;;20.68;44.46
43312;BME280;30041;48.300;16.352;2023-03-21T01:54:22;99888.09;;;20.67;44.35
43312;BME280;30041;48.300;16.352;2023-03-21T01:56:50;99881.66;;;20.68;44.49
43312;BME280;30041;48.300;16.352;2023-03-21T01:59:29;99881.66;;;20.68;44.27
43312;BME280;30041;48.300;16.352;2023-03-21T02:02:01;99887.06;;;20.68;44.39
43312;BME280;30041;48.300;16.352;2023-03-21T02:04:28;99884.56;;;20.66;44.29
43312;BME280;30041;48.300;16.352;2023-03-21T02:07:00;99880.47;;;20.64;44.34
43312;BME280;30041;48.300;16.352;2023-03-21T02:09:31;99881.50;;;20.63;44.44
43312;BME280;30041;48.300;16.352;2023-03-21T02:11:57;99882.09;;;20.65;44.44
43312;BME280;30041;48.300;16.352;2023-03-21T02:14:24;99883.97;;;20.64;44.50
43312;BME280;30041;48.300;16.352;2023-03-21T02:27:55;99880.94;;;20.61;44.47
43312;BME280;30041;48.300;16.352;2023-03-21T02:30:49;99872.25;;;20.59;44.46
43312;BME280;30041;48.300;16.352;2023-03-21T02:36:16;99868.72;;;20.58;44.46
43312;BME280;30041;48.300;16.352;2023-03-21T02:47:02;99854.44;;;20.58;44.40
43312;BME280;30041;48.300;16.352;2023-03-21T02:49:34;99862.06;;;20.61;44.36
43312;BME280;30041;48.300;16.352;2023-03-21T02:52:06;99850.47;;;20.60;44.39
43312;BME280;30041;48.300;16.352;2023-03-21T02:54:33;99856.09;;;20.59;44.53
43312;BME280;30041;48.300;16.352;2023-03-21T02:57:01;99860.88;;;20.57;44.36
43312;BME280;30041;48.300;16.352;2023-03-21T02:59:29;99857.72;;;20.60;44.52
43312;BME280;30041;48.300;16.352;2023-03-21T03:01:57;99849.88;;;20.58;44.33
43312;BME280;30041;48.300;16.352;2023-03-21T03:04:25;99852.81;;;20.57;44.46
43312;BME280;30041;48.300;16.352;2023-03-21T03:09:29;99857.31;;;20.56;44.43
43312;BME280;30041;48.300;16.352;2023-03-21T03:12:11;99855.69;;;20.55;44.36
43312;BME280;30041;48.300;16.352;2023-03-21T03:14:51;99859.88;;;20.51;44.46
43312;BME280;30041;48.300;16.352;2023-03-21T03:25:41;99859.66;;;20.52;44.24
43312;BME280;30041;48.300;16.352;2023-03-21T03:28:10;99869.34;;;20.53;44.41
43312;BME280;30041;48.300;16.352;2023-03-21T03:30:38;99860.25;;;20.55;44.34
43312;BME280;30041;48.300;16.352;2023-03-21T03:33:05;99857.56;;;20.55;44.29
43312;BME280;30041;48.300;16.352;2023-03-21T03:35:33;99863.38;;;20.51;44.40
43312;BME280;30041;48.300;16.352;2023-03-21T03:38:00;99854.47;;;20.51;44.39
43312;BME280;30041;48.300;16.352;2023-03-21T03:40:30;99856.97;;;20.52;44.26
43312;BME280;30041;48.300;16.352;2023-03-21T03:43:04;99852.59;;;20.51;44.14
43312;BME280;30041;48.300;16.352;2023-03-21T03:45:39;99856.34;;;20.50;44.30
43312;BME280;30041;48.300;16.352;2023-03-21T03:48:25;99851.66;;;20.46;44.27
43312;BME280;30041;48.300;16.352;2023-03-21T03:53:47;99850.38;;;20.48;44.37
43312;BME280;30041;48.300;16.352;2023-03-21T03:56:16;99854.94;;;20.48;44.68
43312;BME280;30041;48.300;16.352;2023-03-21T03:58:41;99848.97;;;20.46;44.37
43312;BME280;30041;48.300;16.352;2023-03-21T04:01:07;99852.25;;;20.48;44.24
43312;BME280;30041;48.300;16.352;2023-03-21T04:03:36;99846.28;;;20.46;44.31
43312;BME280;30041;48.300;16.352;2023-03-21T04:06:04;99846.47;;;20.44;44.59
43312;BME280;30041;48.300;16.352;2023-03-21T04:08:29;99851.66;;;20.46;44.54
43312;BME280;30041;48.300;16.352;2023-03-21T04:10:55;99849.09;;;20.51;44.41
43312;BME280;30041;48.300;16.352;2023-03-21T04:13:21;99847.81;;;20.53;44.20
43312;BME280;30041;48.300;16.352;2023-03-21T04:15:46;99851.09;;;20.56;44.11
43312;BME280;30041;48.300;16.352;2023-03-21T04:18:12;99850.72;;;20.59;44.00
43312;BME280;30041;48.300;16.352;2023-03-21T04:20:37;99850.25;;;20.62;44.02
43312;BME280;30041;48.300;16.352;2023-03-21T04:23:04;99852.72;;;20.63;43.85
43312;BME280;30041;48.300;16.352;2023-03-21T04:25:33;99856.81;;;20.66;43.97
43312;BME280;30041;48.300;16.352;2023-03-21T04:27:58;99868.19;;;20.68;43.57
43312;BME280;30041;48.300;16.352;2023-03-21T04:30:24;99867.94;;;20.69;43.68
43312;BME280;30041;48.300;16.352;2023-03-21T04:32:50;99865.84;;;20.71;43.48
43312;BME280;30041;48.300;16.352;2023-03-21T04:35:16;99870.22;;;20.72;43.44
43312;BME280;30041;48.300;16.352;2023-03-21T04:37:42;99878.03;;;20.74;43.66
43312;BME280;30041;48.300;16.352;2023-03-21T04:40:08;99863.16;;;20.71;43.56
43312;BME280;30041;48.300;16.352;2023-03-21T04:42:34;99868.34;;;20.73;43.64
43312;BME280;30041;48.300;16.352;2023-03-21T04:45:00;99866.84;;;20.77;43.22
43312;BME280;30041;48.300;16.352;2023-03-21T04:47:26;99868.72;;;20.77;43.30
43312;BME280;30041;48.300;16.352;2023-03-21T04:49:51;99874.59;;;20.85;43.21
43312;BME280;30041;48.300;16.352;2023-03-21T04:52:17;99876.16;;;20.93;42.88
43312;BME280;30041;48.300;16.352;2023-03-21T04:54:42;99877.34;;;20.97;42.89
43312;BME280;30041;48.300;16.352;2023-03-21T04:57:08;99876.06;;;21.00;43.08
43312;BME280;30041;48.300;16.352;2023-03-21T04:59:34;99871.28;;;21.02;42.97
43312;BME280;30041;48.300;16.352;2023-03-21T05:02:05;99880.75;;;21.04;43.06
43312;BME280;30041;48.300;16.352;2023-03-21T05:04:33;99884.06;;;21.06;43.07
43312;BME280;30041;48.300;16.352;2023-03-21T05:06:59;99885.69;;;21.07;43.03
43312;BME280;30041;48.300;16.352;2023-03-21T05:09:25;99884.66;;;21.08;43.02
43312;BME280;30041;48.300;16.352;2023-03-21T05:12:00;99883.00;;;21.07;43.24
43312;BME280;30041;48.300;16.352;2023-03-21T05:14:26;99885.47;;;21.09;43.29
43312;BME280;30041;48.300;16.352;2023-03-21T05:16:54;99887.13;;;21.10;43.29
43312;BME280;30041;48.300;16.352;2023-03-21T05:19:25;99885.47;;;21.09;43.34
43312;BME280;30041;48.300;16.352;2023-03-21T05:21:51;99885.59;;;21.14;43.32
43312;BME280;30041;48.300;16.352;2023-03-21T05:24:20;99892.03;;;21.13;43.34
43312;BME280;30041;48.300;16.352;2023-03-21T05:26:46;99886.66;;;21.13;43.35
43312;BME280;30041;48.300;16.352;2023-03-21T05:29:12;99890.75;;;21.15;43.28
43312;BME280;30041;48.300;16.352;2023-03-21T05:31:38;99893.09;;;21.12;43.88
43312;BME280;30041;48.300;16.352;2023-03-21T05:34:04;99896.25;;;21.09;43.75
43312;BME280;30041;48.300;16.352;2023-03-21T05:36:29;99893.56;;;21.09;43.97
43312;BME280;30041;48.300;16.352;2023-03-21T05:38:55;99893.34;;;21.10;43.67
43312;BME280;30041;48.300;16.352;2023-03-21T05:41:23;99897.06;;;21.09;43.60
43312;BME280;30041;48.300;16.352;2023-03-21T05:43:49;99891.44;;;21.11;43.56
43312;BME280;30041;48.300;16.352;2023-03-21T05:46:15;99893.56;;;21.09;43.79
43312;BME280;30041;48.300;16.352;2023-03-21T05:48:44;99904.34;;;21.09;43.96
43312;BME280;30041;48.300;16.352;2023-03-21T05:51:09;99900.22;;;21.06;44.20
43312;BME280;30041;48.300;16.352;2023-03-21T05:53:35;99896.25;;;21.09;43.87
43312;BME280;30041;48.300;16.352;2023-03-21T05:56:04;99892.72;;;21.08;44.04
43312;BME280;30041;48.300;16.352;2023-03-21T05:58:33;99900.81;;;21.08;44.09
43312;BME280;30041;48.300;16.352;2023-03-21T06:00:58;99897.66;;;21.11;44.08
43312;BME280;30041;48.300;16.352;2023-03-21T06:03:24;99900.00;;;21.08;44.02
43312;BME280;30041;48.300;16.352;2023-03-21T06:05:53;99896.94;;;21.04;44.38
43312;BME280;30041;48.300;16.352;2023-03-21T06:08:18;99900.44;;;21.05;44.13
43312;BME280;30041;48.300;16.352;2023-03-21T06:10:44;99894.84;;;21.06;44.30
43312;BME280;30041;48.300;16.352;2023-03-21T06:13:10;99895.66;;;21.07;44.61
43312;BME280;30041;48.300;16.352;2023-03-21T06:15:36;99897.53;;;21.06;44.61
43312;BME280;30041;48.300;16.352;2023-03-21T06:18:04;99899.63;;;21.04;44.83
43312;BME280;30041;48.300;16.352;2023-03-21T06:20:39;99900.09;;;21.01;44.96
43312;BME280;30041;48.300;16.352;2023-03-21T06:23:05;99899.03;;;21.02;44.85
43312;BME280;30041;48.300;16.352;2023-03-21T06:25:31;99899.25;;;21.01;45.07
43312;BME280;30041;48.300;16.352;2023-03-21T06:27:56;99909.47;;;20.99;45.02
43312;BME280;30041;48.300;16.352;2023-03-21T06:30:22;99912.72;;;21.01;44.91
43312;BME280;30041;48.300;16.352;2023-03-21T06:32:51;99908.69;;;21.10;44.94
43312;BME280;30041;48.300;16.352;2023-03-21T06:35:17;99905.06;;;21.16;44.67
43312;BME280;30041;48.300;16.352;2023-03-21T06:37:43;99908.34;;;21.18;44.86
43312;BME280;30041;48.300;16.352;2023-03-21T06:40:14;99914.09;;;21.22;44.60
43312;BME280;30041;48.300;16.352;2023-03-21T06:42:40;99914.81;;;21.17;44.80
43312;BME280;30041;48.300;16.352;2023-03-21T06:45:06;99916.59;;;21.23;44.75
43312;BME280;30041;48.300;16.352;2023-03-21T06:47:32;99919.94;;;21.19;44.60
43312;BME280;30041;48.300;16.352;2023-03-21T06:49:58;99920.19;;;21.17;44.19
43312;BME280;30041;48.300;16.352;2023-03-21T06:52:23;99915.56;;;21.06;42.10
43312;BME280;30041;48.300;16.352;2023-03-21T06:54:49;99918.41;;;21.11;42.85
43312;BME280;30041;48.300;16.352;2023-03-21T06:57:15;99917.13;;;21.13;43.07
43312;BME280;30041;48.300;16.352;2023-03-21T06:59:43;99919.59;;;21.15;43.41
43312;BME280;30041;48.300;16.352;2023-03-21T07:02:11;99916.53;;;21.11;43.70
43312;BME280;30041;48.300;16.352;2023-03-21T07:04:36;99919.94;;;21.19;43.19
43312;BME280;30041;48.300;16.352;2023-03-21T07:07:02;99920.09;;;21.24;43.64
43312;BME280;30041;48.300;16.352;2023-03-21T07:09:28;99922.69;;;21.30;43.76
43312;BME280;30041;48.300;16.352;2023-03-21T07:12:01;99917.16;;;21.25;44.06
43312;BME280;30041;48.300;16.352;2023-03-21T07:14:26;99916.59;;;21.23;43.92
43312;BME280;30041;48.300;16.352;2023-03-21T07:16:52;99917.22;;;21.37;43.75
43312;BME280;30041;48.300;16.352;2023-03-21T07:19:18;99917.75;;;21.46;44.03
43312;BME280;30041;48.300;16.352;2023-03-21T07:21:47;99922.59;;;21.37;44.06
43312;BME280;30041;48.300;16.352;2023-03-21T07:24:12;99919.38;;;21.17;41.63
43312;BME280;30041;48.300;16.352;2023-03-21T07:26:38;99918.88;;;21.08;41.57
43312;BME280;30041;48.300;16.352;2023-03-21T07:29:04;99919.59;;;21.15;41.50
43312;BME280;30041;48.300;16.352;2023-03-21T07:31:32;99921.97;;;21.23;41.73
43312;BME280;30041;48.300;16.352;2023-03-21T07:33:58;99921.50;;;21.26;41.87
43312;BME280;30041;48.300;16.352;2023-03-21T07:36:24;99908.03;;;21.26;42.06
43312;BME280;30041;48.300;16.352;2023-03-21T07:38:49;99919.84;;;21.25;42.14
43312;BME280;30041;48.300;16.352;2023-03-21T07:41:15;99912.81;;;21.24;42.53
43312;BME280;30041;48.300;16.352;2023-03-21T07:43:44;99916.00;;;21.21;42.61
43312;BME280;30041;48.300;16.352;2023-03-21T07:46:09;99908.94;;;21.20;42.36
43312;BME280;30041;48.300;16.352;2023-03-21T07:48:35;99907.75;;;21.16;42.72
43312;BME280;30041;48.300;16.352;2023-03-21T07:51:00;99911.84;;;21.19;42.72
43312;BME280;30041;48.300;16.352;2023-03-21T07:53:26;99906.72;;;21.17;42.67
43312;BME280;30041;48.300;16.352;2023-03-21T07:55:54;99906.34;;;21.13;42.57
43312;BME280;30041;48.300;16.352;2023-03-21T07:58:23;99910.31;;;21.11;41.99
43312;BME280;30041;48.300;16.352;2023-03-21T08:00:48;99907.03;;;21.09;42.12
43312;BME280;30041;48.300;16.352;2023-03-21T08:03:14;99900.81;;;21.08;42.40
43312;BME280;30041;48.300;16.352;2023-03-21T08:05:40;99903.50;;;21.08;42.58
43312;BME280;30041;48.300;16.352;2023-03-21T08:08:06;99904.34;;;21.09;42.65
43312;BME280;30041;48.300;16.352;2023-03-21T08:10:33;99905.75;;;21.11;42.62
43312;BME280;30041;48.300;16.352;2023-03-21T08:12:59;99904.94;;;21.11;42.55
43312;BME280;30041;48.300;16.352;2023-03-21T08:15:24;99906.00;;;21.10;42.90
43312;BME280;30041;48.300;16.352;2023-03-21T08:17:50;99905.41;;;21.08;42.98
43312;BME280;30041;48.300;16.352;2023-03-21T08:20:19;99903.28;;;21.10;42.91
43312;BME280;30041;48.300;16.352;2023-03-21T08:22:45;99905.16;;;21.09;42.91
43312;BME280;30041;48.300;16.352;2023-03-21T08:25:15;99908.69;;;21.10;42.94
43312;BME280;30041;48.300;16.352;2023-03-21T08:27:49;99904.34;;;21.09;42.99
43312;BME280;30041;48.300;16.352;2023-03-21T08:30:19;99909.72;;;21.09;42.93
43312;BME280;30041;48.300;16.352;2023-03-21T08:32:46;99909.72;;;21.09;43.15
43312;BME280;30041;48.300;16.352;2023-03-21T08:35:13;99908.09;;;21.08;43.11
43312;BME280;30041;48.300;16.352;2023-03-21T08:37:40;99912.63;;;21.07;43.11
43312;BME280;30041;48.300;16.352;2023-03-21T08:40:08;99909.72;;;21.09;43.00
43312;BME280;30041;48.300;16.352;2023-03-21T08:42:34;99910.78;;;21.08;43.05
43312;BME280;30041;48.300;16.352;2023-03-21T08:45:00;99906.56;;;21.12;42.93
43312;BME280;30041;48.300;16.352;2023-03-21T08:47:26;99910.81;;;21.20;43.00
43312;BME280;30041;48.300;16.352;2023-03-21T08:49:51;99912.44;;;21.21;42.85
43312;BME280;30041;48.300;16.352;2023-03-21T08:52:17;99917.72;;;21.15;42.95
43312;BME280;30041;48.300;16.352;2023-03-21T08:54:43;99899.72;;;20.98;41.59
43312;BME280;30041;48.300;16.352;2023-03-21T08:57:12;99905.00;;;21.04;42.22
43312;BME280;30041;48.300;16.352;2023-03-21T08:59:37;99916.53;;;21.11;42.06
43312;BME280;30041;48.300;16.352;2023-03-21T09:02:03;99922.50;;;21.13;42.08
43312;BME280;30041;48.300;16.352;2023-03-21T09:04:29;99919.38;;;21.17;42.15
43312;BME280;30041;48.300;16.352;2023-03-21T09:06:54;99916.69;;;21.17;42.31
43312;BME280;30041;48.300;16.352;2023-03-21T09:09:20;99920.78;;;21.19;42.12
43312;BME280;30041;48.300;16.352;2023-03-21T09:11:49;99918.69;;;21.21;42.38
43312;BME280;30041;48.300;16.352;2023-03-21T09:14:15;99912.00;;;21.24;42.49
43312;BME280;30041;48.300;16.352;2023-03-21T09:16:40;99915.06;;;21.27;42.44
43312;BME280;30041;48.300;16.352;2023-03-21T09:19:06;99916.72;;;21.28;42.66
43312;BME280;30041;48.300;16.352;2023-03-21T09:21:33;99909.91;;;21.26;42.90
43312;BME280;30041;48.300;16.352;2023-03-21T09:23:58;99908.63;;;21.28;42.64
43312;BME280;30041;48.300;16.352;2023-03-21T09:26:25;99909.66;;;21.27;42.78
43312;BME280;30041;48.300;16.352;2023-03-21T09:28:51;99907.81;;;21.28;42.87
43312;BME280;30041;48.300;16.352;2023-03-21T09:31:17;99904.66;;;21.31;42.79
43312;BME280;30041;48.300;16.352;2023-03-21T09:33:42;99904.66;;;21.31;42.75
43312;BME280;30041;48.300;16.352;2023-03-21T09:36:09;99900.88;;;21.32;42.96
43312;BME280;30041;48.300;16.352;2023-03-21T09:38:35;99891.16;;;21.31;42.97
43312;BME280;30041;48.300;16.352;2023-03-21T09:48:58;99883.06;;;21.31;43.18
43312;BME280;30041;48.300;16.352;2023-03-21T09:51:38;99878.50;;;21.31;43.21
43312;BME280;30041;48.300;16.352;2023-03-21T09:54:35;99879.78;;;21.29;43.32
43312;BME280;30041;48.300;16.352;2023-03-21T09:57:09;99876.63;;;21.32;43.28
43312;BME280;30041;48.300;16.352;2023-03-21T09:59:37;99877.19;;;21.22;43.66
43312;BME280;30041;48.300;16.352;2023-03-21T10:02:40;99873.00;;;21.26;43.71
43312;BME280;30041;48.300;16.352;2023-03-21T10:05:25;99878.16;;;21.28;43.55
43312;BME280;30041;48.300;16.352;2023-03-21T10:10:35;99863.63;;;21.29;43.60
43312;BME280;30041;48.300;16.352;2023-03-21T10:13:04;99857.41;;;21.28;43.61
43312;BME280;30041;48.300;16.352;2023-03-21T10:15:31;99853.66;;;21.29;43.75
43312;BME280;30041;48.300;16.352;2023-03-21T10:18:06;99855.53;;;21.29;43.76
43312;BME280;30041;48.300;16.352;2023-03-21T10:20:35;99848.03;;;21.31;43.75
43312;BME280;30041;48.300;16.352;2023-03-21T10:23:06;99849.06;;;21.30;43.63
43312;BME280;30041;48.300;16.352;2023-03-21T10:25:40;99850.50;;;21.32;44.00
43312;BME280;30041;48.300;16.352;2023-03-21T10:28:10;99838.66;;;21.33;43.70
43312;BME280;30041;48.300;16.352;2023-03-21T10:30:52;99845.13;;;21.32;43.83
43312;BME280;30041;48.300;16.352;2023-03-21T10:33:27;99853.19;;;21.32;43.75
43312;BME280;30041;48.300;16.352;2023-03-21T10:36:24;99842.88;;;21.29;43.97
43312;BME280;30041;48.300;16.352;2023-03-21T10:39:04;99841.81;;;21.30;43.97
43312;BME280;30041;48.300;16.352;2023-03-21T10:41:31;99838.88;;;21.32;44.02
43312;BME280;30041;48.300;16.352;2023-03-21T10:44:27;99846.63;;;21.28;44.00
43312;BME280;30041;48.300;16.352;2023-03-21T10:46:58;99846.97;;;21.32;43.81
43312;BME280;30041;48.300;16.352;2023-03-21T10:49:29;99848.41;;;21.34;44.05
43312;BME280;30041;48.300;16.352;2023-03-21T10:52:02;99837.84;;;21.33;44.06
43312;BME280;30041;48.300;16.352;2023-03-21T10:54:31;99848.41;;;21.34;44.10
43312;BME280;30041;48.300;16.352;2023-03-21T10:57:06;99845.13;;;21.32;44.00
43312;BME280;30041;48.300;16.352;2023-03-21T10:59:56;99843.44;;;21.31;44.35
43312;BME280;30041;48.300;16.352;2023-03-21T11:02:29;99835.75;;;21.35;44.01
43312;BME280;30041;48.300;16.352;2023-03-21T11:05:04;99833.84;;;21.35;43.92
43312;BME280;30041;48.300;16.352;2023-03-21T11:07:30;99834.06;;;21.34;44.20
43312;BME280;30041;48.300;16.352;2023-03-21T11:09:59;99834.88;;;21.23;42.27
43312;BME280;30041;48.300;16.352;2023-03-21T11:12:34;99825.50;;;21.25;42.66
43312;BME280;30041;48.300;16.352;2023-03-21T11:17:54;99818.84;;;21.28;42.08
43312;BME280;30041;48.300;16.352;2023-03-21T11:20:20;99815.47;;;21.32;41.84
43312;BME280;30041;48.300;16.352;2023-03-21T11:22:47;99810.19;;;21.38;42.09
43312;BME280;30041;48.300;16.352;2023-03-21T11:25:40;99810.41;;;21.36;42.18
43312;BME280;30041;48.300;16.352;2023-03-21T11:28:12;99803.50;;;21.40;42.36
43312;BME280;30041;48.300;16.352;2023-03-21T11:30:57;99798.22;;;21.33;42.23
43312;BME280;30041;48.300;16.352;2023-03-21T11:33:36;99800.81;;;21.28;41.54
43312;BME280;30041;48.300;16.352;2023-03-21T11:36:26;99795.03;;;21.25;41.68
43312;BME280;30041;48.300;16.352;2023-03-21T11:39:02;99804.09;;;21.30;41.93
43312;BME280;30041;48.300;16.352;2023-03-21T11:41:39;99795.53;;;21.33;42.12
43312;BME280;30041;48.300;16.352;2023-03-21T11:44:05;99799.03;;;21.34;42.30
43312;BME280;30041;48.300;16.352;2023-03-21T11:46:31;99787.44;;;21.33;42.43
43312;BME280;30041;48.300;16.352;2023-03-21T11:49:04;99782.84;;;21.34;42.67
43312;BME280;30041;48.300;16.352;2023-03-21T11:51:40;99779.94;;;21.35;42.67
43312;BME280;30041;48.300;16.352;2023-03-21T11:56:53;99772.91;;;21.34;42.85
43312;BME280;30041;48.300;16.352;2023-03-21T11:59:41;99781.81;;;21.35;43.00
43312;BME280;30041;48.300;16.352;2023-03-21T12:02:44;99767.97;;;21.31;43.17
43312;BME280;30041;48.300;16.352;2023-03-21T12:05:27;99762.59;;;21.31;43.21
43312;BME280;30041;48.300;16.352;2023-03-21T12:08:29;99762.00;;;21.29;43.15
43312;BME280;30041;48.300;16.352;2023-03-21T12:11:00;99761.75;;;21.31;43.41
43312;BME280;30041;48.300;16.352;2023-03-21T12:13:53;99755.19;;;21.27;43.45
43312;BME280;30041;48.300;16.352;2023-03-21T12:16:38;99730.94;;;21.27;43.47
43312;BME280;30041;48.300;16.352;2023-03-21T12:19:19;99725.78;;;21.25;43.27
43312;BME280;30041;48.300;16.352;2023-03-21T12:22:09;99730.34;;;21.25;43.25
43312;BME280;30041;48.300;16.352;2023-03-21T12:24:49;99736.56;;;21.25;43.16
43312;BME280;30041;48.300;16.352;2023-03-21T12:30:36;99735.28;;;21.28;42.87
43312;BME280;30041;48.300;16.352;2023-03-21T12:33:20;99735.84;;;21.30;43.12
43312;BME280;30041;48.300;16.352;2023-03-21T12:36:13;99728.25;;;21.27;43.13
43312;BME280;30041;48.300;16.352;2023-03-21T12:39:02;99725.31;;;21.28;43.34
43312;BME280;30041;48.300;16.352;2023-03-21T12:41:36;99719.66;;;21.30;43.39
43312;BME280;30041;48.300;16.352;2023-03-21T12:44:14;99719.66;;;21.30;43.42
43312;BME280;30041;48.300;16.352;2023-03-21T12:46:50;99714.06;;;21.31;43.56
43312;BME280;30041;48.300;16.352;2023-03-21T12:49:34;99712.44;;;21.30;43.76
43312;BME280;30041;48.300;16.352;2023-03-21T12:52:11;99701.66;;;21.30;43.83
43312;BME280;30041;48.300;16.352;2023-03-21T12:54:40;99708.44;;;21.33;43.94
43312;BME280;30041;48.300;16.352;2023-03-21T12:57:14;99704.94;;;21.32;44.14
43312;BME280;30041;48.300;16.352;2023-03-21T13:02:39;99692.25;;;21.33;43.97
43312;BME280;30041;48.300;16.352;2023-03-21T13:05:17;99692.03;;;21.34;44.05
43312;BME280;30041;48.300;16.352;2023-03-21T13:08:08;99689.59;;;21.21;42.98
43312;BME280;30041;48.300;16.352;2023-03-21T13:10:35;99695.41;;;21.30;43.04
43312;BME280;30041;48.300;16.352;2023-03-21T13:16:20;99685.22;;;21.32;42.37
43312;BME280;30041;48.300;16.352;2023-03-21T13:19:19;99692.25;;;21.33;42.19
43312;BME280;30041;48.300;16.352;2023-03-21T13:22:09;99676.31;;;21.31;42.10
43312;BME280;30041;48.300;16.352;2023-03-21T13:24:47;99674.44;;;21.32;41.64
43312;BME280;30041;48.300;16.352;2023-03-21T13:27:33;99680.09;;;21.30;41.30
43312;BME280;30041;48.300;16.352;2023-03-21T13:30:19;99679.00;;;21.31;41.18
43312;BME280;30041;48.300;16.352;2023-03-21T13:32:48;99679.38;;;21.35;41.01
43312;BME280;30041;48.300;16.352;2023-03-21T13:38:04;99666.47;;;21.37;40.89
43312;BME280;30041;48.300;16.352;2023-03-21T13:40:51;99664.59;;;21.38;40.87
43312;BME280;30041;48.300;16.352;2023-03-21T13:54:26;99651.38;;;21.48;41.31
43312;BME280;30041;48.300;16.352;2023-03-21T13:56:56;99651.72;;;21.51;41.33
43312;BME280;30041;48.300;16.352;2023-03-21T14:02:11;99642.00;;;21.50;41.41
43312;BME280;30041;48.300;16.352;2023-03-21T14:04:44;99641.75;;;21.52;41.11
43312;BME280;30041;48.300;16.352;2023-03-21T14:07:22;99638.47;;;21.50;41.19
43312;BME280;30041;48.300;16.352;2023-03-21T14:09:51;99639.03;;;21.52;41.30
43312;BME280;30041;48.300;16.352;2023-03-21T14:12:24;99638.00;;;21.53;41.40
43312;BME280;30041;48.300;16.352;2023-03-21T14:15:00;99634.72;;;21.51;41.36
43312;BME280;30041;48.300;16.352;2023-03-21T14:17:31;99631.53;;;21.54;41.41
43312;BME280;30041;48.300;16.352;2023-03-21T14:20:07;99624.28;;;21.54;41.55
43312;BME280;30041;48.300;16.352;2023-03-21T14:22:33;99624.84;;;21.56;41.57
43312;BME280;30041;48.300;16.352;2023-03-21T14:25:00;99620.88;;;21.59;41.72